sensor_id;sensor_type;location;lat;lon;timestamp;P1;durP1;ratioP1;P2;durP2;ratioP2
55003;SDS011;40900;52.710;6.438;2023-09-07T00:00:10;7.15;;;3.40;;
55003;SDS011;40900;52.710;6.438;2023-09-07T00:02:36;4.28;;;3.10;;
55003;SDS011;40900;52.710;6.438;2023-09-07T00:05:01;8.95;;;3.30;;
55003;SDS011;40900;52.710;6.438;2023-09-07T00:07:28;5.78;;;3.10;;
55003;SDS011;40900;52.710;6.438;2023-09-07T00:09:54;6.03;;;3.13;;
55003;SDS011;40900;52.710;6.438;2023-09-07T00:12:20;7.38;;;3.38;;
55003;SDS011;40900;52.710;6.438;2023-09-07T00:14:45;7.43;;;3.60;;
55003;SDS011;40900;52.710;6.438;2023-09-07T00:17:11;5.93;;;3.13;;
55003;SDS011;40900;52.710;6.438;2023-09-07T00:19:37;6.00;;;3.17;;
55003;SDS011;40900;52.710;6.438;2023-09-07T00:22:03;8.15;;;3.50;;
55003;SDS011;40900;52.710;6.438;2023-09-07T00:24:30;10.68;;;3.08;;
55003;SDS011;40900;52.710;6.438;2023-09-07T00:26:57;3.95;;;3.22;;
55003;SDS011;40900;52.710;6.438;2023-09-07T00:29:23;6.82;;;3.60;;
55003;SDS011;40900;52.710;6.438;2023-09-07T00:31:48;8.32;;;3.55;;
55003;SDS011;40900;52.710;6.438;2023-09-07T00:34:14;6.75;;;3.40;;
55003;SDS011;40900;52.710;6.438;2023-09-07T00:36:40;5.75;;;3.03;;
55003;SDS011;40900;52.710;6.438;2023-09-07T00:39:05;8.05;;;3.80;;
55003;SDS011;40900;52.710;6.438;2023-09-07T00:41:31;5.80;;;3.63;;
55003;SDS011;40900;52.710;6.438;2023-09-07T00:43:57;6.55;;;3.80;;
55003;SDS011;40900;52.710;6.438;2023-09-07T00:46:22;5.82;;;3.42;;
55003;SDS011;40900;52.710;6.438;2023-09-07T00:48:48;6.78;;;3.33;;
55003;SDS011;40900;52.710;6.438;2023-09-07T00:51:15;5.25;;;3.42;;
55003;SDS011;40900;52.710;6.438;2023-09-07T00:53:40;4.18;;;3.25;;
55003;SDS011;40900;52.710;6.438;2023-09-07T00:56:07;7.93;;;3.60;;
55003;SDS011;40900;52.710;6.438;2023-09-07T00:58:33;7.45;;;3.75;;
55003;SDS011;40900;52.710;6.438;2023-09-07T01:00:59;8.15;;;3.53;;
55003;SDS011;40900;52.710;6.438;2023-09-07T01:03:25;5.97;;;3.90;;
55003;SDS011;40900;52.710;6.438;2023-09-07T01:08:24;10.88;;;4.07;;
55003;SDS011;40900;52.710;6.438;2023-09-07T01:10:54;7.25;;;3.53;;
55003;SDS011;40900;52.710;6.438;2023-09-07T01:13:19;7.78;;;4.13;;
55003;SDS011;40900;52.710;6.438;2023-09-07T01:15:46;5.55;;;3.78;;
55003;SDS011;40900;52.710;6.438;2023-09-07T01:18:12;6.15;;;3.80;;
55003;SDS011;40900;52.710;6.438;2023-09-07T01:20:40;8.43;;;4.25;;
55003;SDS011;40900;52.710;6.438;2023-09-07T01:23:06;8.65;;;4.47;;
55003;SDS011;40900;52.710;6.438;2023-09-07T01:25:33;6.65;;;4.00;;
55003;SDS011;40900;52.710;6.438;2023-09-07T01:27:59;7.72;;;3.88;;
55003;SDS011;40900;52.710;6.438;2023-09-07T01:30:26;6.82;;;4.43;;
55003;SDS011;40900;52.710;6.438;2023-09-07T01:32:53;6.97;;;4.43;;
55003;SDS011;40900;52.710;6.438;2023-09-07T01:35:19;7.35;;;4.63;;
55003;SDS011;40900;52.710;6.438;2023-09-07T01:37:47;5.78;;;4.30;;
55003;SDS011;40900;52.710;6.438;2023-09-07T01:40:13;6.03;;;4.18;;
55003;SDS011;40900;52.710;6.438;2023-09-07T01:42:39;6.32;;;4.57;;
55003;SDS011;40900;52.710;6.438;2023-09-07T01:45:05;7.18;;;4.28;;
55003;SDS011;40900;52.710;6.438;2023-09-07T01:47:31;9.27;;;4.28;;
55003;SDS011;40900;52.710;6.438;2023-09-07T01:49:57;8.38;;;4.07;;
55003;SDS011;40900;52.710;6.438;2023-09-07T01:52:22;7.72;;;4.55;;
55003;SDS011;40900;52.710;6.438;2023-09-07T01:54:48;6.25;;;4.30;;
55003;SDS011;40900;52.710;6.438;2023-09-07T01:57:14;8.43;;;4.28;;
55003;SDS011;40900;52.710;6.438;2023-09-07T01:59:39;7.85;;;4.50;;
55003;SDS011;40900;52.710;6.438;2023-09-07T02:02:05;6.95;;;4.47;;
55003;SDS011;40900;52.710;6.438;2023-09-07T02:04:31;9.13;;;4.32;;
55003;SDS011;40900;52.710;6.438;2023-09-07T02:06:56;10.48;;;4.25;;
55003;SDS011;40900;52.710;6.438;2023-09-07T02:09:22;8.80;;;4.65;;
55003;SDS011;40900;52.710;6.438;2023-09-07T02:11:48;7.22;;;4.70;;
55003;SDS011;40900;52.710;6.438;2023-09-07T02:14:13;7.25;;;4.55;;
55003;SDS011;40900;52.710;6.438;2023-09-07T02:16:40;7.57;;;4.53;;
55003;SDS011;40900;52.710;6.438;2023-09-07T02:19:07;8.38;;;4.55;;
55003;SDS011;40900;52.710;6.438;2023-09-07T02:21:32;5.82;;;4.18;;
55003;SDS011;40900;52.710;6.438;2023-09-07T02:23:58;6.00;;;4.82;;
55003;SDS011;40900;52.710;6.438;2023-09-07T02:26:24;9.50;;;4.05;;
55003;SDS011;40900;52.710;6.438;2023-09-07T02:28:50;5.63;;;4.63;;
55003;SDS011;40900;52.710;6.438;2023-09-07T02:31:16;9.93;;;4.43;;
55003;SDS011;40900;52.710;6.438;2023-09-07T02:33:42;9.18;;;4.68;;
55003;SDS011;40900;52.710;6.438;2023-09-07T02:36:07;5.68;;;4.05;;
55003;SDS011;40900;52.710;6.438;2023-09-07T02:38:33;8.05;;;4.28;;
55003;SDS011;40900;52.710;6.438;2023-09-07T02:40:59;8.23;;;4.15;;
55003;SDS011;40900;52.710;6.438;2023-09-07T02:43:24;8.23;;;4.55;;
55003;SDS011;40900;52.710;6.438;2023-09-07T02:45:50;9.20;;;4.63;;
55003;SDS011;40900;52.710;6.438;2023-09-07T02:48:16;4.50;;;4.05;;
55003;SDS011;40900;52.710;6.438;2023-09-07T02:50:41;7.72;;;4.05;;
55003;SDS011;40900;52.710;6.438;2023-09-07T02:53:07;10.55;;;4.40;;
55003;SDS011;40900;52.710;6.438;2023-09-07T02:55:33;7.30;;;4.53;;
55003;SDS011;40900;52.710;6.438;2023-09-07T02:58:02;7.32;;;4.32;;
55003;SDS011;40900;52.710;6.438;2023-09-07T03:00:28;8.88;;;4.53;;
55003;SDS011;40900;52.710;6.438;2023-09-07T03:02:54;4.65;;;3.17;;
55003;SDS011;40900;52.710;6.438;2023-09-07T03:05:20;7.47;;;4.00;;
55003;SDS011;40900;52.710;6.438;2023-09-07T03:07:46;8.13;;;4.43;;
55003;SDS011;40900;52.710;6.438;2023-09-07T03:10:12;8.98;;;4.50;;
55003;SDS011;40900;52.710;6.438;2023-09-07T03:12:38;7.20;;;4.30;;
55003;SDS011;40900;52.710;6.438;2023-09-07T03:15:04;9.02;;;4.10;;
55003;SDS011;40900;52.710;6.438;2023-09-07T03:17:31;7.40;;;4.30;;
55003;SDS011;40900;52.710;6.438;2023-09-07T03:19:57;8.68;;;4.72;;
55003;SDS011;40900;52.710;6.438;2023-09-07T03:22:23;8.00;;;4.80;;
55003;SDS011;40900;52.710;6.438;2023-09-07T03:24:49;6.32;;;4.35;;
55003;SDS011;40900;52.710;6.438;2023-09-07T03:27:16;7.60;;;4.80;;
55003;SDS011;40900;52.710;6.438;2023-09-07T03:29:41;10.85;;;5.03;;
55003;SDS011;40900;52.710;6.438;2023-09-07T03:32:09;5.80;;;4.47;;
55003;SDS011;40900;52.710;6.438;2023-09-07T03:34:34;8.68;;;5.03;;
55003;SDS011;40900;52.710;6.438;2023-09-07T03:37:00;9.15;;;4.80;;
55003;SDS011;40900;52.710;6.438;2023-09-07T03:39:26;6.07;;;4.70;;
55003;SDS011;40900;52.710;6.438;2023-09-07T03:41:51;11.30;;;4.70;;
55003;SDS011;40900;52.710;6.438;2023-09-07T03:44:17;7.10;;;4.53;;
55003;SDS011;40900;52.710;6.438;2023-09-07T03:46:43;8.00;;;4.40;;
55003;SDS011;40900;52.710;6.438;2023-09-07T03:49:09;7.10;;;4.70;;
55003;SDS011;40900;52.710;6.438;2023-09-07T03:51:35;6.70;;;4.85;;
55003;SDS011;40900;52.710;6.438;2023-09-07T03:54:01;8.68;;;4.47;;
55003;SDS011;40900;52.710;6.438;2023-09-07T03:56:27;5.47;;;4.53;;
55003;SDS011;40900;52.710;6.438;2023-09-07T03:58:53;8.90;;;5.18;;
55003;SDS011;40900;52.710;6.438;2023-09-07T04:01:18;8.13;;;5.00;;
55003;SDS011;40900;52.710;6.438;2023-09-07T04:03:44;7.15;;;5.00;;
55003;SDS011;40900;52.710;6.438;2023-09-07T04:06:10;5.97;;;4.60;;
55003;SDS011;40900;52.710;6.438;2023-09-07T04:08:35;6.60;;;4.85;;
55003;SDS011;40900;52.710;6.438;2023-09-07T04:11:04;7.82;;;4.95;;
55003;SDS011;40900;52.710;6.438;2023-09-07T04:13:31;9.02;;;5.25;;
55003;SDS011;40900;52.710;6.438;2023-09-07T04:15:58;8.18;;;5.20;;
55003;SDS011;40900;52.710;6.438;2023-09-07T04:18:24;11.73;;;5.68;;
55003;SDS011;40900;52.710;6.438;2023-09-07T04:20:49;7.13;;;5.30;;
55003;SDS011;40900;52.710;6.438;2023-09-07T04:23:15;6.38;;;5.47;;
55003;SDS011;40900;52.710;6.438;2023-09-07T04:25:41;8.02;;;4.90;;
55003;SDS011;40900;52.710;6.438;2023-09-07T04:28:07;7.53;;;5.43;;
55003;SDS011;40900;52.710;6.438;2023-09-07T04:30:33;6.30;;;5.22;;
55003;SDS011;40900;52.710;6.438;2023-09-07T04:33:02;7.68;;;6.00;;
55003;SDS011;40900;52.710;6.438;2023-09-07T04:35:29;10.90;;;5.30;;
55003;SDS011;40900;52.710;6.438;2023-09-07T04:37:55;8.20;;;5.57;;
55003;SDS011;40900;52.710;6.438;2023-09-07T04:40:22;13.70;;;5.30;;
55003;SDS011;40900;52.710;6.438;2023-09-07T04:42:48;9.60;;;5.38;;
55003;SDS011;40900;52.710;6.438;2023-09-07T04:45:14;8.73;;;5.63;;
55003;SDS011;40900;52.710;6.438;2023-09-07T04:47:40;10.30;;;5.32;;
55003;SDS011;40900;52.710;6.438;2023-09-07T04:50:06;11.50;;;6.15;;
55003;SDS011;40900;52.710;6.438;2023-09-07T04:52:32;8.73;;;5.85;;
55003;SDS011;40900;52.710;6.438;2023-09-07T04:55:00;9.40;;;5.88;;
55003;SDS011;40900;52.710;6.438;2023-09-07T04:57:26;11.75;;;6.22;;
55003;SDS011;40900;52.710;6.438;2023-09-07T04:59:51;11.15;;;5.55;;
55003;SDS011;40900;52.710;6.438;2023-09-07T05:02:17;6.72;;;5.82;;
55003;SDS011;40900;52.710;6.438;2023-09-07T05:04:43;8.90;;;5.57;;
55003;SDS011;40900;52.710;6.438;2023-09-07T05:07:10;11.75;;;6.30;;
55003;SDS011;40900;52.710;6.438;2023-09-07T05:09:35;8.80;;;5.15;;
55003;SDS011;40900;52.710;6.438;2023-09-07T05:12:01;7.25;;;6.18;;
55003;SDS011;40900;52.710;6.438;2023-09-07T05:14:27;13.48;;;6.03;;
55003;SDS011;40900;52.710;6.438;2023-09-07T05:16:54;8.95;;;5.63;;
55003;SDS011;40900;52.710;6.438;2023-09-07T05:19:21;9.60;;;5.88;;
55003;SDS011;40900;52.710;6.438;2023-09-07T05:21:47;10.25;;;6.60;;
55003;SDS011;40900;52.710;6.438;2023-09-07T05:24:13;9.80;;;5.95;;
55003;SDS011;40900;52.710;6.438;2023-09-07T05:26:42;8.93;;;6.63;;
55003;SDS011;40900;52.710;6.438;2023-09-07T05:29:09;10.32;;;6.15;;
55003;SDS011;40900;52.710;6.438;2023-09-07T05:31:36;7.28;;;6.10;;
55003;SDS011;40900;52.710;6.438;2023-09-07T05:34:01;7.43;;;6.38;;
55003;SDS011;40900;52.710;6.438;2023-09-07T05:36:27;9.77;;;6.18;;
55003;SDS011;40900;52.710;6.438;2023-09-07T05:38:54;9.05;;;6.25;;
55003;SDS011;40900;52.710;6.438;2023-09-07T05:41:20;11.35;;;6.35;;
55003;SDS011;40900;52.710;6.438;2023-09-07T05:43:45;10.65;;;6.07;;
55003;SDS011;40900;52.710;6.438;2023-09-07T05:46:11;8.35;;;6.40;;
55003;SDS011;40900;52.710;6.438;2023-09-07T05:48:37;9.68;;;6.15;;
55003;SDS011;40900;52.710;6.438;2023-09-07T05:51:02;12.40;;;6.50;;
55003;SDS011;40900;52.710;6.438;2023-09-07T05:53:28;9.07;;;5.75;;
55003;SDS011;40900;52.710;6.438;2023-09-07T05:55:54;8.25;;;6.15;;
55003;SDS011;40900;52.710;6.438;2023-09-07T05:58:20;9.32;;;6.30;;
55003;SDS011;40900;52.710;6.438;2023-09-07T06:00:45;10.77;;;6.40;;
55003;SDS011;40900;52.710;6.438;2023-09-07T06:03:11;7.45;;;6.28;;
55003;SDS011;40900;52.710;6.438;2023-09-07T06:05:37;11.93;;;6.03;;
55003;SDS011;40900;52.710;6.438;2023-09-07T06:08:04;12.45;;;6.10;;
55003;SDS011;40900;52.710;6.438;2023-09-07T06:10:33;10.60;;;6.38;;
55003;SDS011;40900;52.710;6.438;2023-09-07T06:12:59;9.98;;;6.05;;
55003;SDS011;40900;52.710;6.438;2023-09-07T06:15:25;10.52;;;6.80;;
55003;SDS011;40900;52.710;6.438;2023-09-07T06:17:52;9.75;;;6.50;;
55003;SDS011;40900;52.710;6.438;2023-09-07T06:20:19;9.57;;;6.40;;
55003;SDS011;40900;52.710;6.438;2023-09-07T06:22:45;8.80;;;6.20;;
55003;SDS011;40900;52.710;6.438;2023-09-07T06:25:11;8.23;;;5.82;;
55003;SDS011;40900;52.710;6.438;2023-09-07T06:27:36;9.00;;;6.38;;
55003;SDS011;40900;52.710;6.438;2023-09-07T06:30:03;9.55;;;6.20;;
55003;SDS011;40900;52.710;6.438;2023-09-07T06:32:30;9.35;;;6.22;;
55003;SDS011;40900;52.710;6.438;2023-09-07T06:34:57;8.05;;;5.22;;
55003;SDS011;40900;52.710;6.438;2023-09-07T06:37:23;11.18;;;6.72;;
55003;SDS011;40900;52.710;6.438;2023-09-07T06:39:53;7.90;;;6.00;;
55003;SDS011;40900;52.710;6.438;2023-09-07T06:42:19;13.02;;;6.22;;
55003;SDS011;40900;52.710;6.438;2023-09-07T06:44:44;8.57;;;6.47;;
55003;SDS011;40900;52.710;6.438;2023-09-07T06:47:10;13.73;;;6.38;;
55003;SDS011;40900;52.710;6.438;2023-09-07T06:49:39;9.38;;;6.47;;
55003;SDS011;40900;52.710;6.438;2023-09-07T06:52:05;8.13;;;6.15;;
55003;SDS011;40900;52.710;6.438;2023-09-07T06:54:31;11.98;;;6.90;;
55003;SDS011;40900;52.710;6.438;2023-09-07T06:56:56;12.90;;;6.82;;
55003;SDS011;40900;52.710;6.438;2023-09-07T06:59:22;10.90;;;6.90;;
55003;SDS011;40900;52.710;6.438;2023-09-07T07:01:48;10.60;;;6.55;;
55003;SDS011;40900;52.710;6.438;2023-09-07T07:04:14;12.80;;;6.50;;
55003;SDS011;40900;52.710;6.438;2023-09-07T07:06:39;9.05;;;6.53;;
55003;SDS011;40900;52.710;6.438;2023-09-07T07:09:05;10.48;;;6.85;;
55003;SDS011;40900;52.710;6.438;2023-09-07T07:11:31;10.77;;;6.82;;
55003;SDS011;40900;52.710;6.438;2023-09-07T07:13:57;7.80;;;6.50;;
55003;SDS011;40900;52.710;6.438;2023-09-07T07:16:22;10.15;;;6.28;;
55003;SDS011;40900;52.710;6.438;2023-09-07T07:18:48;10.20;;;6.85;;
55003;SDS011;40900;52.710;6.438;2023-09-07T07:21:14;12.07;;;6.47;;
55003;SDS011;40900;52.710;6.438;2023-09-07T07:23:40;7.63;;;6.82;;
55003;SDS011;40900;52.710;6.438;2023-09-07T07:26:06;7.70;;;6.25;;
55003;SDS011;40900;52.710;6.438;2023-09-07T07:28:32;14.73;;;6.88;;
55003;SDS011;40900;52.710;6.438;2023-09-07T07:30:57;11.07;;;6.20;;
55003;SDS011;40900;52.710;6.438;2023-09-07T07:33:23;10.90;;;6.43;;
55003;SDS011;40900;52.710;6.438;2023-09-07T07:35:49;7.97;;;6.20;;
55003;SDS011;40900;52.710;6.438;2023-09-07T07:38:14;8.52;;;6.20;;
55003;SDS011;40900;52.710;6.438;2023-09-07T07:40:40;8.70;;;6.45;;
55003;SDS011;40900;52.710;6.438;2023-09-07T07:43:07;9.60;;;6.40;;
55003;SDS011;40900;52.710;6.438;2023-09-07T07:45:34;7.70;;;5.90;;
55003;SDS011;40900;52.710;6.438;2023-09-07T07:48:03;13.32;;;6.35;;
55003;SDS011;40900;52.710;6.438;2023-09-07T07:50:36;9.38;;;5.60;;
55003;SDS011;40900;52.710;6.438;2023-09-07T07:53:03;7.65;;;6.00;;
55003;SDS011;40900;52.710;6.438;2023-09-07T07:55:29;7.85;;;5.97;;
55003;SDS011;40900;52.710;6.438;2023-09-07T07:57:55;10.25;;;6.00;;
55003;SDS011;40900;52.710;6.438;2023-09-07T08:00:20;10.82;;;5.72;;
55003;SDS011;40900;52.710;6.438;2023-09-07T08:02:46;7.82;;;5.38;;
55003;SDS011;40900;52.710;6.438;2023-09-07T08:05:12;10.05;;;5.80;;
55003;SDS011;40900;52.710;6.438;2023-09-07T08:07:38;11.35;;;5.78;;
55003;SDS011;40900;52.710;6.438;2023-09-07T08:10:03;8.02;;;5.43;;
55003;SDS011;40900;52.710;6.438;2023-09-07T08:12:29;8.60;;;5.35;;
55003;SDS011;40900;52.710;6.438;2023-09-07T08:14:55;8.10;;;5.22;;
55003;SDS011;40900;52.710;6.438;2023-09-07T08:17:21;9.80;;;5.40;;
55003;SDS011;40900;52.710;6.438;2023-09-07T08:19:48;10.52;;;5.80;;
55003;SDS011;40900;52.710;6.438;2023-09-07T08:22:16;7.10;;;5.07;;
55003;SDS011;40900;52.710;6.438;2023-09-07T08:24:42;7.35;;;5.35;;
55003;SDS011;40900;52.710;6.438;2023-09-07T08:27:09;6.72;;;4.43;;
55003;SDS011;40900;52.710;6.438;2023-09-07T08:29:36;7.95;;;4.70;;
55003;SDS011;40900;52.710;6.438;2023-09-07T08:32:01;6.80;;;5.28;;
55003;SDS011;40900;52.710;6.438;2023-09-07T08:34:29;6.18;;;5.07;;
55003;SDS011;40900;52.710;6.438;2023-09-07T08:36:56;8.57;;;4.65;;
55003;SDS011;40900;52.710;6.438;2023-09-07T08:39:24;6.22;;;5.13;;
55003;SDS011;40900;52.710;6.438;2023-09-07T08:41:49;9.10;;;4.72;;
55003;SDS011;40900;52.710;6.438;2023-09-07T08:44:16;5.95;;;4.68;;
55003;SDS011;40900;52.710;6.438;2023-09-07T08:46:43;8.27;;;4.72;;
55003;SDS011;40900;52.710;6.438;2023-09-07T08:49:10;7.47;;;4.70;;
55003;SDS011;40900;52.710;6.438;2023-09-07T08:51:36;7.22;;;4.82;;
55003;SDS011;40900;52.710;6.438;2023-09-07T08:54:03;10.07;;;4.53;;
55003;SDS011;40900;52.710;6.438;2023-09-07T08:56:29;5.40;;;4.75;;
55003;SDS011;40900;52.710;6.438;2023-09-07T08:58:56;8.00;;;4.07;;
55003;SDS011;40900;52.710;6.438;2023-09-07T09:01:21;8.27;;;4.30;;
55003;SDS011;40900;52.710;6.438;2023-09-07T09:03:50;6.13;;;4.25;;
55003;SDS011;40900;52.710;6.438;2023-09-07T09:06:17;8.25;;;4.80;;
55003;SDS011;40900;52.710;6.438;2023-09-07T09:08:44;7.28;;;4.90;;
55003;SDS011;40900;52.710;6.438;2023-09-07T09:11:20;9.43;;;4.93;;
55003;SDS011;40900;52.710;6.438;2023-09-07T09:13:47;7.68;;;4.63;;
55003;SDS011;40900;52.710;6.438;2023-09-07T09:16:14;5.72;;;4.38;;
55003;SDS011;40900;52.710;6.438;2023-09-07T09:18:53;5.40;;;4.30;;
55003;SDS011;40900;52.710;6.438;2023-09-07T09:21:21;5.78;;;4.28;;
55003;SDS011;40900;52.710;6.438;2023-09-07T09:23:49;7.32;;;4.03;;
55003;SDS011;40900;52.710;6.438;2023-09-07T09:26:17;6.38;;;4.28;;
55003;SDS011;40900;52.710;6.438;2023-09-07T09:28:43;5.32;;;3.92;;
55003;SDS011;40900;52.710;6.438;2023-09-07T09:31:12;9.00;;;4.35;;
55003;SDS011;40900;52.710;6.438;2023-09-07T09:33:42;6.82;;;4.38;;
55003;SDS011;40900;52.710;6.438;2023-09-07T09:38:39;5.07;;;4.15;;
55003;SDS011;40900;52.710;6.438;2023-09-07T09:41:05;6.18;;;4.00;;
55003;SDS011;40900;52.710;6.438;2023-09-07T09:43:31;7.38;;;4.20;;
55003;SDS011;40900;52.710;6.438;2023-09-07T09:45:57;9.05;;;4.18;;
55003;SDS011;40900;52.710;6.438;2023-09-07T09:48:25;6.63;;;3.90;;
55003;SDS011;40900;52.710;6.438;2023-09-07T09:50:53;7.72;;;4.28;;
55003;SDS011;40900;52.710;6.438;2023-09-07T09:53:19;6.40;;;3.80;;
55003;SDS011;40900;52.710;6.438;2023-09-07T09:55:46;11.25;;;4.20;;
55003;SDS011;40900;52.710;6.438;2023-09-07T09:58:17;5.82;;;4.00;;
55003;SDS011;40900;52.710;6.438;2023-09-07T10:00:43;8.27;;;3.80;;
55003;SDS011;40900;52.710;6.438;2023-09-07T10:06:09;5.55;;;4.40;;
55003;SDS011;40900;52.710;6.438;2023-09-07T10:08:36;6.30;;;3.63;;
55003;SDS011;40900;52.710;6.438;2023-09-07T10:11:07;6.78;;;3.65;;
55003;SDS011;40900;52.710;6.438;2023-09-07T10:13:34;6.23;;;3.57;;
55003;SDS011;40900;52.710;6.438;2023-09-07T10:16:01;6.15;;;4.10;;
55003;SDS011;40900;52.710;6.438;2023-09-07T10:18:36;6.20;;;3.80;;
55003;SDS011;40900;52.710;6.438;2023-09-07T10:21:03;10.63;;;3.85;;
55003;SDS011;40900;52.710;6.438;2023-09-07T10:26:03;6.78;;;3.85;;
55003;SDS011;40900;52.710;6.438;2023-09-07T10:28:30;8.82;;;4.22;;
55003;SDS011;40900;52.710;6.438;2023-09-07T10:31:05;7.15;;;3.58;;
55003;SDS011;40900;52.710;6.438;2023-09-07T10:33:39;5.93;;;3.45;;
55003;SDS011;40900;52.710;6.438;2023-09-07T10:36:05;6.75;;;3.35;;
55003;SDS011;40900;52.710;6.438;2023-09-07T10:38:31;8.90;;;3.72;;
55003;SDS011;40900;52.710;6.438;2023-09-07T10:40:58;6.90;;;3.58;;
55003;SDS011;40900;52.710;6.438;2023-09-07T10:43:29;10.45;;;3.95;;
55003;SDS011;40900;52.710;6.438;2023-09-07T10:45:56;5.00;;;3.40;;
55003;SDS011;40900;52.710;6.438;2023-09-07T10:48:24;6.72;;;3.47;;
55003;SDS011;40900;52.710;6.438;2023-09-07T10:50:50;10.70;;;3.30;;
55003;SDS011;40900;52.710;6.438;2023-09-07T10:53:26;4.88;;;3.40;;
55003;SDS011;40900;52.710;6.438;2023-09-07T10:55:53;8.77;;;3.50;;
55003;SDS011;40900;52.710;6.438;2023-09-07T10:58:31;5.97;;;3.40;;
55003;SDS011;40900;52.710;6.438;2023-09-07T11:00:58;6.32;;;3.40;;
55003;SDS011;40900;52.710;6.438;2023-09-07T11:03:25;3.92;;;3.38;;
55003;SDS011;40900;52.710;6.438;2023-09-07T11:06:03;7.13;;;3.40;;
55003;SDS011;40900;52.710;6.438;2023-09-07T11:08:37;11.98;;;3.70;;
55003;SDS011;40900;52.710;6.438;2023-09-07T11:11:03;5.72;;;3.30;;
55003;SDS011;40900;52.710;6.438;2023-09-07T11:13:29;4.35;;;3.20;;
55003;SDS011;40900;52.710;6.438;2023-09-07T11:15:56;8.88;;;3.50;;
55003;SDS011;40900;52.710;6.438;2023-09-07T11:18:23;7.00;;;3.53;;
55003;SDS011;40900;52.710;6.438;2023-09-07T11:20:50;4.82;;;3.35;;
55003;SDS011;40900;52.710;6.438;2023-09-07T11:23:17;7.60;;;3.20;;
55003;SDS011;40900;52.710;6.438;2023-09-07T11:25:45;5.03;;;3.45;;
55003;SDS011;40900;52.710;6.438;2023-09-07T11:28:12;7.03;;;3.45;;
55003;SDS011;40900;52.710;6.438;2023-09-07T11:30:50;7.50;;;3.47;;
55003;SDS011;40900;52.710;6.438;2023-09-07T11:33:17;6.15;;;3.13;;
55003;SDS011;40900;52.710;6.438;2023-09-07T11:35:43;7.57;;;3.85;;
55003;SDS011;40900;52.710;6.438;2023-09-07T11:38:12;6.78;;;3.35;;
55003;SDS011;40900;52.710;6.438;2023-09-07T11:40:38;8.13;;;3.58;;
55003;SDS011;40900;52.710;6.438;2023-09-07T11:43:04;7.20;;;3.30;;
55003;SDS011;40900;52.710;6.438;2023-09-07T11:45:30;3.95;;;3.35;;
55003;SDS011;40900;52.710;6.438;2023-09-07T11:47:57;4.68;;;3.10;;
55003;SDS011;40900;52.710;6.438;2023-09-07T11:50:23;6.80;;;3.15;;
55003;SDS011;40900;52.710;6.438;2023-09-07T11:52:50;9.18;;;3.97;;
55003;SDS011;40900;52.710;6.438;2023-09-07T11:55:16;7.68;;;3.97;;
55003;SDS011;40900;52.710;6.438;2023-09-07T11:57:42;6.75;;;3.55;;
55003;SDS011;40900;52.710;6.438;2023-09-07T12:00:08;8.68;;;3.63;;
55003;SDS011;40900;52.710;6.438;2023-09-07T12:02:38;5.10;;;3.40;;
55003;SDS011;40900;52.710;6.438;2023-09-07T12:05:04;6.72;;;3.50;;
55003;SDS011;40900;52.710;6.438;2023-09-07T12:07:33;6.05;;;3.47;;
55003;SDS011;40900;52.710;6.438;2023-09-07T12:09:59;5.78;;;3.40;;
55003;SDS011;40900;52.710;6.438;2023-09-07T12:12:25;8.35;;;3.88;;
55003;SDS011;40900;52.710;6.438;2023-09-07T12:14:51;6.22;;;3.65;;
55003;SDS011;40900;52.710;6.438;2023-09-07T12:17:16;7.18;;;3.90;;
55003;SDS011;40900;52.710;6.438;2023-09-07T12:19:44;7.00;;;3.65;;
55003;SDS011;40900;52.710;6.438;2023-09-07T12:22:11;8.60;;;3.08;;
55003;SDS011;40900;52.710;6.438;2023-09-07T12:24:37;5.50;;;3.60;;
55003;SDS011;40900;52.710;6.438;2023-09-07T12:27:03;10.80;;;3.85;;
55003;SDS011;40900;52.710;6.438;2023-09-07T12:29:29;7.72;;;3.92;;
55003;SDS011;40900;52.710;6.438;2023-09-07T12:31:55;6.22;;;3.40;;
55003;SDS011;40900;52.710;6.438;2023-09-07T12:34:22;7.75;;;3.72;;
55003;SDS011;40900;52.710;6.438;2023-09-07T12:36:47;7.63;;;3.40;;
55003;SDS011;40900;52.710;6.438;2023-09-07T12:39:14;7.93;;;3.92;;
55003;SDS011;40900;52.710;6.438;2023-09-07T12:41:40;6.53;;;3.92;;
55003;SDS011;40900;52.710;6.438;2023-09-07T12:44:06;6.75;;;3.65;;
55003;SDS011;40900;52.710;6.438;2023-09-07T12:46:32;5.88;;;3.50;;
55003;SDS011;40900;52.710;6.438;2023-09-07T12:48:58;5.55;;;3.78;;
55003;SDS011;40900;52.710;6.438;2023-09-07T12:51:24;9.93;;;3.80;;
55003;SDS011;40900;52.710;6.438;2023-09-07T12:53:49;5.40;;;4.00;;
55003;SDS011;40900;52.710;6.438;2023-09-07T12:56:16;5.18;;;3.50;;
55003;SDS011;40900;52.710;6.438;2023-09-07T12:58:43;7.68;;;3.60;;
55003;SDS011;40900;52.710;6.438;2023-09-07T13:01:09;4.80;;;3.47;;
55003;SDS011;40900;52.710;6.438;2023-09-07T13:03:37;4.32;;;3.35;;
55003;SDS011;40900;52.710;6.438;2023-09-07T13:06:02;7.88;;;3.53;;
55003;SDS011;40900;52.710;6.438;2023-09-07T13:08:29;7.63;;;3.50;;
55003;SDS011;40900;52.710;6.438;2023-09-07T13:10:55;6.45;;;3.28;;
55003;SDS011;40900;52.710;6.438;2023-09-07T13:13:22;6.70;;;3.30;;
55003;SDS011;40900;52.710;6.438;2023-09-07T13:15:49;4.72;;;3.15;;
55003;SDS011;40900;52.710;6.438;2023-09-07T13:18:15;6.40;;;3.70;;
55003;SDS011;40900;52.710;6.438;2023-09-07T13:20:41;6.97;;;3.47;;
55003;SDS011;40900;52.710;6.438;2023-09-07T13:23:07;7.60;;;3.85;;
55003;SDS011;40900;52.710;6.438;2023-09-07T13:25:33;5.22;;;3.40;;
55003;SDS011;40900;52.710;6.438;2023-09-07T13:27:59;8.60;;;3.92;;
55003;SDS011;40900;52.710;6.438;2023-09-07T13:30:24;5.18;;;3.47;;
55003;SDS011;40900;52.710;6.438;2023-09-07T13:32:50;6.68;;;3.33;;
55003;SDS011;40900;52.710;6.438;2023-09-07T13:35:16;6.60;;;3.67;;
55003;SDS011;40900;52.710;6.438;2023-09-07T13:37:42;7.75;;;4.20;;
55003;SDS011;40900;52.710;6.438;2023-09-07T13:40:07;5.07;;;3.33;;
55003;SDS011;40900;52.710;6.438;2023-09-07T13:42:34;6.63;;;3.45;;
55003;SDS011;40900;52.710;6.438;2023-09-07T13:45:00;6.28;;;3.40;;
55003;SDS011;40900;52.710;6.438;2023-09-07T13:47:25;7.13;;;4.05;;
55003;SDS011;40900;52.710;6.438;2023-09-07T13:49:51;8.27;;;3.58;;
55003;SDS011;40900;52.710;6.438;2023-09-07T13:52:17;5.50;;;3.45;;
55003;SDS011;40900;52.710;6.438;2023-09-07T13:54:43;5.32;;;3.20;;
55003;SDS011;40900;52.710;6.438;2023-09-07T13:57:09;5.68;;;3.58;;
55003;SDS011;40900;52.710;6.438;2023-09-07T13:59:35;4.60;;;3.00;;
55003;SDS011;40900;52.710;6.438;2023-09-07T14:02:01;6.68;;;3.45;;
55003;SDS011;40900;52.710;6.438;2023-09-07T14:04:27;7.20;;;3.55;;
55003;SDS011;40900;52.710;6.438;2023-09-07T14:06:54;9.07;;;3.63;;
55003;SDS011;40900;52.710;6.438;2023-09-07T14:09:19;6.13;;;3.60;;
55003;SDS011;40900;52.710;6.438;2023-09-07T14:11:48;24.25;;;3.42;;
55003;SDS011;40900;52.710;6.438;2023-09-07T14:14:14;10.68;;;3.60;;
55003;SDS011;40900;52.710;6.438;2023-09-07T14:16:41;7.28;;;3.40;;
55003;SDS011;40900;52.710;6.438;2023-09-07T14:19:07;6.88;;;3.88;;
55003;SDS011;40900;52.710;6.438;2023-09-07T14:21:33;5.50;;;3.38;;
55003;SDS011;40900;52.710;6.438;2023-09-07T14:23:58;7.68;;;3.50;;
55003;SDS011;40900;52.710;6.438;2023-09-07T14:26:25;5.45;;;3.35;;
55003;SDS011;40900;52.710;6.438;2023-09-07T14:28:50;7.90;;;3.53;;
55003;SDS011;40900;52.710;6.438;2023-09-07T14:31:16;6.47;;;3.47;;
55003;SDS011;40900;52.710;6.438;2023-09-07T14:33:41;4.38;;;3.20;;
55003;SDS011;40900;52.710;6.438;2023-09-07T14:36:07;9.48;;;3.65;;
55003;SDS011;40900;52.710;6.438;2023-09-07T14:38:36;6.28;;;4.00;;
55003;SDS011;40900;52.710;6.438;2023-09-07T14:41:07;5.78;;;3.78;;
55003;SDS011;40900;52.710;6.438;2023-09-07T14:43:36;8.85;;;3.55;;
55003;SDS011;40900;52.710;6.438;2023-09-07T14:46:02;5.32;;;3.67;;
55003;SDS011;40900;52.710;6.438;2023-09-07T14:48:28;10.13;;;3.80;;
55003;SDS011;40900;52.710;6.438;2023-09-07T14:50:53;5.88;;;3.75;;